sensor_id;sensor_type;location;lat;lon;timestamp;P1;durP1;ratioP1;P2;durP2;ratioP2
16524;SDS011;8375;33.594;-117.718;2022-08-18T00:00:36;3.75;;;3.00;;
16524;SDS011;8375;33.594;-117.718;2022-08-18T00:03:05;4.25;;;2.67;;
16524;SDS011;8375;33.594;-117.718;2022-08-18T00:05:37;5.50;;;2.75;;
16524;SDS011;8375;33.594;-117.718;2022-08-18T00:08:06;5.95;;;3.10;;
16524;SDS011;8375;33.594;-117.718;2022-08-18T00:10:35;5.40;;;2.72;;
16524;SDS011;8375;33.594;-117.718;2022-08-18T00:13:06;4.97;;;2.63;;
16524;SDS011;8375;33.594;-117.718;2022-08-18T00:15:35;5.25;;;3.15;;
16524;SDS011;8375;33.594;-117.718;2022-08-18T00:18:04;7.22;;;3.03;;
16524;SDS011;8375;33.594;-117.718;2022-08-18T00:20:33;5.25;;;2.00;;
16524;SDS011;8375;33.594;-117.718;2022-08-18T00:23:03;4.68;;;2.30;;
16524;SDS011;8375;33.594;-117.718;2022-08-18T00:25:32;3.13;;;2.33;;
16524;SDS011;8375;33.594;-117.718;2022-08-18T00:28:00;2.88;;;1.67;;
16524;SDS011;8375;33.594;-117.718;2022-08-18T00:30:29;4.38;;;2.28;;
16524;SDS011;8375;33.594;-117.718;2022-08-18T00:32:58;6.40;;;2.42;;
16524;SDS011;8375;33.594;-117.718;2022-08-18T00:35:28;5.35;;;2.67;;
16524;SDS011;8375;33.594;-117.718;2022-08-18T00:37:58;7.18;;;2.67;;
16524;SDS011;8375;33.594;-117.718;2022-08-18T00:40:31;4.72;;;2.13;;
16524;SDS011;8375;33.594;-117.718;2022-08-18T00:43:04;4.95;;;2.58;;
16524;SDS011;8375;33.594;-117.718;2022-08-18T00:45:34;5.45;;;2.90;;
16524;SDS011;8375;33.594;-117.718;2022-08-18T00:48:06;4.03;;;2.60;;
16524;SDS011;8375;33.594;-117.718;2022-08-18T00:50:37;4.40;;;2.30;;
16524;SDS011;8375;33.594;-117.718;2022-08-18T00:53:08;5.25;;;2.58;;
16524;SDS011;8375;33.594;-117.718;2022-08-18T00:55:41;4.50;;;2.67;;
16524;SDS011;8375;33.594;-117.718;2022-08-18T00:58:14;5.10;;;2.95;;
16524;SDS011;8375;33.594;-117.718;2022-08-18T01:00:47;5.80;;;2.65;;
16524;SDS011;8375;33.594;-117.718;2022-08-18T01:03:18;6.32;;;3.00;;
16524;SDS011;8375;33.594;-117.718;2022-08-18T01:05:51;3.78;;;2.78;;
16524;SDS011;8375;33.594;-117.718;2022-08-18T01:08:24;6.97;;;2.83;;
16524;SDS011;8375;33.594;-117.718;2022-08-18T01:10:55;4.45;;;2.53;;
16524;SDS011;8375;33.594;-117.718;2022-08-18T01:13:26;5.00;;;2.90;;
16524;SDS011;8375;33.594;-117.718;2022-08-18T01:15:57;7.40;;;2.47;;
16524;SDS011;8375;33.594;-117.718;2022-08-18T01:18:47;5.22;;;2.58;;
16524;SDS011;8375;33.594;-117.718;2022-08-18T01:21:32;8.95;;;2.58;;
16524;SDS011;8375;33.594;-117.718;2022-08-18T01:24:23;6.13;;;3.00;;
16524;SDS011;8375;33.594;-117.718;2022-08-18T01:27:08;6.90;;;3.30;;
16524;SDS011;8375;33.594;-117.718;2022-08-18T01:29:43;6.00;;;3.00;;
16524;SDS011;8375;33.594;-117.718;2022-08-18T01:32:13;6.35;;;2.95;;
16524;SDS011;8375;33.594;-117.718;2022-08-18T01:34:44;3.28;;;2.65;;
16524;SDS011;8375;33.594;-117.718;2022-08-18T01:37:14;6.22;;;2.65;;
16524;SDS011;8375;33.594;-117.718;2022-08-18T01:39:52;4.97;;;2.42;;
16524;SDS011;8375;33.594;-117.718;2022-08-18T01:42:21;3.80;;;2.38;;
16524;SDS011;8375;33.594;-117.718;2022-08-18T01:44:50;4.47;;;2.47;;
16524;SDS011;8375;33.594;-117.718;2022-08-18T01:47:18;5.28;;;2.40;;
16524;SDS011;8375;33.594;-117.718;2022-08-18T01:49:47;7.30;;;2.92;;
16524;SDS011;8375;33.594;-117.718;2022-08-18T01:52:18;5.03;;;2.42;;
16524;SDS011;8375;33.594;-117.718;2022-08-18T01:54:49;6.22;;;2.90;;
16524;SDS011;8375;33.594;-117.718;2022-08-18T01:57:38;5.82;;;2.95;;
16524;SDS011;8375;33.594;-117.718;2022-08-18T02:00:10;3.85;;;2.78;;
16524;SDS011;8375;33.594;-117.718;2022-08-18T02:02:40;5.68;;;2.92;;
16524;SDS011;8375;33.594;-117.718;2022-08-18T02:05:10;5.18;;;2.90;;
16524;SDS011;8375;33.594;-117.718;2022-08-18T02:07:41;5.88;;;3.38;;
16524;SDS011;8375;33.594;-117.718;2022-08-18T02:10:10;8.77;;;4.18;;
16524;SDS011;8375;33.594;-117.718;2022-08-18T02:12:41;7.22;;;3.58;;
16524;SDS011;8375;33.594;-117.718;2022-08-18T02:15:10;7.03;;;4.25;;
16524;SDS011;8375;33.594;-117.718;2022-08-18T02:17:40;9.63;;;4.38;;
16524;SDS011;8375;33.594;-117.718;2022-08-18T02:20:11;4.03;;;3.00;;
16524;SDS011;8375;33.594;-117.718;2022-08-18T02:22:44;4.35;;;3.17;;
16524;SDS011;8375;33.594;-117.718;2022-08-18T02:25:14;5.50;;;3.00;;
16524;SDS011;8375;33.594;-117.718;2022-08-18T02:27:45;6.22;;;2.47;;
16524;SDS011;8375;33.594;-117.718;2022-08-18T02:30:14;5.68;;;2.58;;
16524;SDS011;8375;33.594;-117.718;2022-08-18T02:32:44;4.75;;;2.60;;
16524;SDS011;8375;33.594;-117.718;2022-08-18T02:35:13;5.38;;;2.90;;
16524;SDS011;8375;33.594;-117.718;2022-08-18T02:37:42;4.68;;;2.92;;
16524;SDS011;8375;33.594;-117.718;2022-08-18T02:40:12;8.10;;;3.00;;
16524;SDS011;8375;33.594;-117.718;2022-08-18T02:42:42;6.38;;;2.80;;
16524;SDS011;8375;33.594;-117.718;2022-08-18T02:45:13;3.58;;;2.80;;
16524;SDS011;8375;33.594;-117.718;2022-08-18T02:47:42;5.28;;;2.72;;
16524;SDS011;8375;33.594;-117.718;2022-08-18T02:50:11;5.63;;;2.63;;
16524;SDS011;8375;33.594;-117.718;2022-08-18T02:52:41;5.70;;;2.80;;
16524;SDS011;8375;33.594;-117.718;2022-08-18T02:55:10;5.50;;;2.80;;
16524;SDS011;8375;33.594;-117.718;2022-08-18T02:57:40;4.68;;;2.83;;
16524;SDS011;8375;33.594;-117.718;2022-08-18T03:00:12;6.10;;;3.25;;
16524;SDS011;8375;33.594;-117.718;2022-08-18T03:02:44;5.22;;;3.17;;
16524;SDS011;8375;33.594;-117.718;2022-08-18T03:05:13;6.80;;;3.47;;
16524;SDS011;8375;33.594;-117.718;2022-08-18T03:07:42;4.82;;;3.28;;
16524;SDS011;8375;33.594;-117.718;2022-08-18T03:10:11;7.63;;;3.63;;
16524;SDS011;8375;33.594;-117.718;2022-08-18T03:12:41;7.13;;;4.32;;
16524;SDS011;8375;33.594;-117.718;2022-08-18T03:15:09;6.43;;;4.28;;
16524;SDS011;8375;33.594;-117.718;2022-08-18T03:17:40;6.72;;;4.32;;
16524;SDS011;8375;33.594;-117.718;2022-08-18T03:20:09;8.38;;;4.78;;
16524;SDS011;8375;33.594;-117.718;2022-08-18T03:22:38;7.57;;;4.38;;
16524;SDS011;8375;33.594;-117.718;2022-08-18T03:25:08;10.68;;;5.15;;
16524;SDS011;8375;33.594;-117.718;2022-08-18T03:27:36;10.23;;;4.63;;
16524;SDS011;8375;33.594;-117.718;2022-08-18T03:30:05;9.40;;;4.82;;
16524;SDS011;8375;33.594;-117.718;2022-08-18T03:32:37;10.02;;;5.10;;
16524;SDS011;8375;33.594;-117.718;2022-08-18T03:35:06;9.45;;;5.18;;
16524;SDS011;8375;33.594;-117.718;2022-08-18T03:37:35;11.00;;;4.95;;
16524;SDS011;8375;33.594;-117.718;2022-08-18T03:40:04;5.60;;;4.22;;
16524;SDS011;8375;33.594;-117.718;2022-08-18T03:42:35;11.05;;;5.10;;
16524;SDS011;8375;33.594;-117.718;2022-08-18T03:45:04;8.02;;;4.50;;
16524;SDS011;8375;33.594;-117.718;2022-08-18T03:47:34;8.32;;;5.32;;
16524;SDS011;8375;33.594;-117.718;2022-08-18T03:50:04;8.75;;;5.38;;
16524;SDS011;8375;33.594;-117.718;2022-08-18T03:52:34;8.50;;;5.30;;
16524;SDS011;8375;33.594;-117.718;2022-08-18T03:55:03;11.15;;;6.28;;
16524;SDS011;8375;33.594;-117.718;2022-08-18T03:57:32;9.07;;;5.38;;
16524;SDS011;8375;33.594;-117.718;2022-08-18T04:00:01;13.00;;;6.22;;
16524;SDS011;8375;33.594;-117.718;2022-08-18T04:02:30;9.35;;;5.30;;
16524;SDS011;8375;33.594;-117.718;2022-08-18T04:04:59;8.07;;;4.65;;
16524;SDS011;8375;33.594;-117.718;2022-08-18T04:07:33;9.00;;;4.85;;
16524;SDS011;8375;33.594;-117.718;2022-08-18T04:10:01;8.27;;;4.72;;
16524;SDS011;8375;33.594;-117.718;2022-08-18T04:12:30;7.07;;;3.92;;
16524;SDS011;8375;33.594;-117.718;2022-08-18T04:14:59;7.55;;;3.65;;
16524;SDS011;8375;33.594;-117.718;2022-08-18T04:17:28;6.25;;;3.60;;
16524;SDS011;8375;33.594;-117.718;2022-08-18T04:19:57;6.80;;;3.20;;
16524;SDS011;8375;33.594;-117.718;2022-08-18T04:22:27;7.10;;;3.28;;
16524;SDS011;8375;33.594;-117.718;2022-08-18T04:24:58;5.25;;;3.33;;
16524;SDS011;8375;33.594;-117.718;2022-08-18T04:27:27;6.90;;;3.58;;
16524;SDS011;8375;33.594;-117.718;2022-08-18T04:29:57;6.43;;;3.17;;
16524;SDS011;8375;33.594;-117.718;2022-08-18T04:32:25;7.30;;;3.58;;
16524;SDS011;8375;33.594;-117.718;2022-08-18T04:34:56;7.40;;;3.78;;
16524;SDS011;8375;33.594;-117.718;2022-08-18T04:37:27;8.52;;;3.75;;
16524;SDS011;8375;33.594;-117.718;2022-08-18T04:39:57;7.25;;;4.38;;
16524;SDS011;8375;33.594;-117.718;2022-08-18T04:42:25;8.30;;;3.50;;
16524;SDS011;8375;33.594;-117.718;2022-08-18T04:44:54;7.35;;;3.85;;
16524;SDS011;8375;33.594;-117.718;2022-08-18T04:47:23;7.78;;;4.18;;
16524;SDS011;8375;33.594;-117.718;2022-08-18T04:49:52;8.85;;;4.10;;
16524;SDS011;8375;33.594;-117.718;2022-08-18T04:52:21;8.15;;;4.10;;
16524;SDS011;8375;33.594;-117.718;2022-08-18T04:55:08;5.82;;;3.55;;
16524;SDS011;8375;33.594;-117.718;2022-08-18T04:57:37;5.18;;;3.70;;
16524;SDS011;8375;33.594;-117.718;2022-08-18T05:00:07;5.43;;;4.03;;
16524;SDS011;8375;33.594;-117.718;2022-08-18T05:02:38;8.45;;;4.10;;
16524;SDS011;8375;33.594;-117.718;2022-08-18T05:05:07;7.32;;;4.70;;
16524;SDS011;8375;33.594;-117.718;2022-08-18T05:07:41;7.18;;;4.18;;
16524;SDS011;8375;33.594;-117.718;2022-08-18T05:10:13;8.38;;;4.55;;
16524;SDS011;8375;33.594;-117.718;2022-08-18T05:12:44;7.95;;;4.60;;
16524;SDS011;8375;33.594;-117.718;2022-08-18T05:15:14;9.05;;;5.00;;
16524;SDS011;8375;33.594;-117.718;2022-08-18T05:17:43;10.85;;;4.70;;
16524;SDS011;8375;33.594;-117.718;2022-08-18T05:20:12;8.52;;;4.82;;
16524;SDS011;8375;33.594;-117.718;2022-08-18T05:22:41;10.88;;;5.15;;
16524;SDS011;8375;33.594;-117.718;2022-08-18T05:25:10;10.48;;;4.82;;
16524;SDS011;8375;33.594;-117.718;2022-08-18T05:27:41;9.73;;;5.20;;
16524;SDS011;8375;33.594;-117.718;2022-08-18T05:30:10;12.40;;;5.65;;
16524;SDS011;8375;33.594;-117.718;2022-08-18T05:32:40;10.13;;;5.05;;
16524;SDS011;8375;33.594;-117.718;2022-08-18T05:35:12;13.18;;;6.03;;
16524;SDS011;8375;33.594;-117.718;2022-08-18T05:37:44;8.57;;;4.95;;
16524;SDS011;8375;33.594;-117.718;2022-08-18T05:40:47;11.27;;;5.45;;
16524;SDS011;8375;33.594;-117.718;2022-08-18T05:43:30;9.00;;;5.18;;
16524;SDS011;8375;33.594;-117.718;2022-08-18T05:45:59;9.00;;;5.93;;
16524;SDS011;8375;33.594;-117.718;2022-08-18T05:48:30;11.10;;;6.18;;
16524;SDS011;8375;33.594;-117.718;2022-08-18T05:51:02;9.55;;;5.95;;
16524;SDS011;8375;33.594;-117.718;2022-08-18T05:53:38;8.52;;;5.88;;
16524;SDS011;8375;33.594;-117.718;2022-08-18T05:56:27;10.10;;;6.18;;
16524;SDS011;8375;33.594;-117.718;2022-08-18T05:59:17;14.83;;;6.60;;
16524;SDS011;8375;33.594;-117.718;2022-08-18T06:01:50;13.67;;;6.23;;
16524;SDS011;8375;33.594;-117.718;2022-08-18T06:04:25;15.20;;;6.40;;
16524;SDS011;8375;33.594;-117.718;2022-08-18T06:07:04;11.40;;;6.63;;
16524;SDS011;8375;33.594;-117.718;2022-08-18T06:09:37;15.43;;;6.05;;
16524;SDS011;8375;33.594;-117.718;2022-08-18T06:12:15;12.00;;;5.93;;
16524;SDS011;8375;33.594;-117.718;2022-08-18T06:14:50;11.50;;;6.60;;
16524;SDS011;8375;33.594;-117.718;2022-08-18T06:17:28;8.70;;;5.70;;
16524;SDS011;8375;33.594;-117.718;2022-08-18T06:20:28;14.38;;;6.70;;
16524;SDS011;8375;33.594;-117.718;2022-08-18T06:23:07;13.68;;;5.85;;
16524;SDS011;8375;33.594;-117.718;2022-08-18T06:25:56;13.77;;;6.77;;
16524;SDS011;8375;33.594;-117.718;2022-08-18T06:28:38;16.45;;;6.97;;
16524;SDS011;8375;33.594;-117.718;2022-08-18T06:31:26;14.97;;;6.30;;
16524;SDS011;8375;33.594;-117.718;2022-08-18T06:34:02;15.77;;;7.18;;
16524;SDS011;8375;33.594;-117.718;2022-08-18T06:36:43;12.40;;;6.55;;
16524;SDS011;8375;33.594;-117.718;2022-08-18T06:39:22;12.40;;;6.85;;
16524;SDS011;8375;33.594;-117.718;2022-08-18T06:41:55;10.88;;;6.38;;
16524;SDS011;8375;33.594;-117.718;2022-08-18T06:44:28;10.52;;;6.25;;
16524;SDS011;8375;33.594;-117.718;2022-08-18T06:47:01;11.70;;;6.20;;
16524;SDS011;8375;33.594;-117.718;2022-08-18T06:49:52;10.18;;;6.57;;
16524;SDS011;8375;33.594;-117.718;2022-08-18T06:52:28;11.40;;;6.10;;
16524;SDS011;8375;33.594;-117.718;2022-08-18T06:54:59;12.38;;;6.55;;
16524;SDS011;8375;33.594;-117.718;2022-08-18T06:57:30;12.73;;;7.17;;
16524;SDS011;8375;33.594;-117.718;2022-08-18T07:00:04;10.80;;;6.25;;
16524;SDS011;8375;33.594;-117.718;2022-08-18T07:02:42;14.93;;;7.05;;
16524;SDS011;8375;33.594;-117.718;2022-08-18T07:05:19;13.27;;;6.75;;
16524;SDS011;8375;33.594;-117.718;2022-08-18T07:10:42;11.05;;;6.65;;
16524;SDS011;8375;33.594;-117.718;2022-08-18T07:13:18;14.95;;;6.38;;
16524;SDS011;8375;33.594;-117.718;2022-08-18T07:15:51;11.10;;;6.47;;
16524;SDS011;8375;33.594;-117.718;2022-08-18T07:18:22;10.35;;;6.38;;
16524;SDS011;8375;33.594;-117.718;2022-08-18T07:20:54;13.50;;;7.38;;
16524;SDS011;8375;33.594;-117.718;2022-08-18T07:23:25;11.20;;;6.30;;
16524;SDS011;8375;33.594;-117.718;2022-08-18T07:26:00;11.02;;;5.95;;
16524;SDS011;8375;33.594;-117.718;2022-08-18T07:28:34;12.70;;;6.10;;
16524;SDS011;8375;33.594;-117.718;2022-08-18T07:31:17;12.07;;;6.15;;
16524;SDS011;8375;33.594;-117.718;2022-08-18T07:33:56;15.18;;;6.85;;
16524;SDS011;8375;33.594;-117.718;2022-08-18T07:36:29;14.15;;;6.82;;
16524;SDS011;8375;33.594;-117.718;2022-08-18T07:39:03;17.25;;;7.70;;
16524;SDS011;8375;33.594;-117.718;2022-08-18T07:41:38;9.90;;;5.93;;
16524;SDS011;8375;33.594;-117.718;2022-08-18T07:44:12;12.98;;;6.28;;
16524;SDS011;8375;33.594;-117.718;2022-08-18T07:46:49;12.45;;;6.70;;
16524;SDS011;8375;33.594;-117.718;2022-08-18T07:49:26;12.25;;;6.45;;
16524;SDS011;8375;33.594;-117.718;2022-08-18T07:52:04;14.80;;;7.03;;
16524;SDS011;8375;33.594;-117.718;2022-08-18T07:54:46;7.93;;;6.07;;
16524;SDS011;8375;33.594;-117.718;2022-08-18T07:57:24;12.25;;;6.88;;
16524;SDS011;8375;33.594;-117.718;2022-08-18T08:00:03;12.80;;;6.53;;
16524;SDS011;8375;33.594;-117.718;2022-08-18T08:02:45;7.53;;;6.40;;
16524;SDS011;8375;33.594;-117.718;2022-08-18T08:05:32;10.90;;;6.18;;
16524;SDS011;8375;33.594;-117.718;2022-08-18T08:08:18;12.43;;;6.68;;
16524;SDS011;8375;33.594;-117.718;2022-08-18T08:10:56;15.03;;;7.20;;
16524;SDS011;8375;33.594;-117.718;2022-08-18T08:13:36;13.85;;;7.93;;
16524;SDS011;8375;33.594;-117.718;2022-08-18T08:16:17;14.98;;;7.10;;
16524;SDS011;8375;33.594;-117.718;2022-08-18T08:18:54;14.15;;;7.55;;
16524;SDS011;8375;33.594;-117.718;2022-08-18T08:21:30;12.93;;;7.35;;
16524;SDS011;8375;33.594;-117.718;2022-08-18T08:24:09;10.05;;;6.93;;
16524;SDS011;8375;33.594;-117.718;2022-08-18T08:26:46;12.10;;;7.30;;
16524;SDS011;8375;33.594;-117.718;2022-08-18T08:29:24;18.00;;;7.85;;
16524;SDS011;8375;33.594;-117.718;2022-08-18T08:32:02;11.73;;;7.22;;
16524;SDS011;8375;33.594;-117.718;2022-08-18T08:34:36;12.90;;;7.50;;
16524;SDS011;8375;33.594;-117.718;2022-08-18T08:37:11;13.68;;;7.63;;
16524;SDS011;8375;33.594;-117.718;2022-08-18T08:39:45;9.27;;;7.57;;
16524;SDS011;8375;33.594;-117.718;2022-08-18T08:42:22;12.13;;;7.78;;
16524;SDS011;8375;33.594;-117.718;2022-08-18T08:45:05;13.13;;;7.38;;
16524;SDS011;8375;33.594;-117.718;2022-08-18T08:47:39;15.57;;;7.90;;
16524;SDS011;8375;33.594;-117.718;2022-08-18T08:50:17;11.30;;;6.93;;
16524;SDS011;8375;33.594;-117.718;2022-08-18T08:52:50;12.50;;;7.57;;
16524;SDS011;8375;33.594;-117.718;2022-08-18T08:55:23;14.35;;;7.22;;
16524;SDS011;8375;33.594;-117.718;2022-08-18T08:57:57;11.95;;;7.30;;
16524;SDS011;8375;33.594;-117.718;2022-08-18T09:00:37;12.53;;;7.27;;
16524;SDS011;8375;33.594;-117.718;2022-08-18T09:03:11;10.57;;;8.15;;
16524;SDS011;8375;33.594;-117.718;2022-08-18T09:06:02;15.00;;;7.83;;
16524;SDS011;8375;33.594;-117.718;2022-08-18T09:11:43;15.17;;;8.60;;
16524;SDS011;8375;33.594;-117.718;2022-08-18T09:17:36;12.67;;;8.10;;
16524;SDS011;8375;33.594;-117.718;2022-08-18T09:20:29;10.97;;;7.57;;
16524;SDS011;8375;33.594;-117.718;2022-08-18T09:23:09;12.57;;;8.40;;
16524;SDS011;8375;33.594;-117.718;2022-08-18T09:25:44;17.37;;;8.93;;
16524;SDS011;8375;33.594;-117.718;2022-08-18T09:28:15;16.05;;;8.50;;
16524;SDS011;8375;33.594;-117.718;2022-08-18T09:30:50;12.60;;;8.27;;
16524;SDS011;8375;33.594;-117.718;2022-08-18T09:33:46;13.63;;;8.20;;
16524;SDS011;8375;33.594;-117.718;2022-08-18T09:36:37;12.40;;;8.05;;
16524;SDS011;8375;33.594;-117.718;2022-08-18T09:39:23;14.27;;;8.83;;
16524;SDS011;8375;33.594;-117.718;2022-08-18T09:42:14;15.40;;;8.87;;
16524;SDS011;8375;33.594;-117.718;2022-08-18T09:44:56;11.63;;;8.83;;
16524;SDS011;8375;33.594;-117.718;2022-08-18T09:54:04;12.57;;;8.60;;
16524;SDS011;8375;33.594;-117.718;2022-08-18T09:57:04;16.60;;;8.52;;
16524;SDS011;8375;33.594;-117.718;2022-08-18T09:59:52;13.80;;;9.23;;
16524;SDS011;8375;33.594;-117.718;2022-08-18T10:05:56;11.47;;;9.90;;
16524;SDS011;8375;33.594;-117.718;2022-08-18T10:08:35;21.60;;;11.30;;
16524;SDS011;8375;33.594;-117.718;2022-08-18T10:11:23;16.13;;;11.23;;
16524;SDS011;8375;33.594;-117.718;2022-08-18T10:14:22;14.17;;;11.07;;
16524;SDS011;8375;33.594;-117.718;2022-08-18T10:17:08;16.23;;;11.10;;
16524;SDS011;8375;33.594;-117.718;2022-08-18T10:19:48;13.37;;;11.10;;
16524;SDS011;8375;33.594;-117.718;2022-08-18T10:22:35;15.23;;;11.23;;
16524;SDS011;8375;33.594;-117.718;2022-08-18T10:25:08;15.57;;;11.37;;
16524;SDS011;8375;33.594;-117.718;2022-08-18T10:27:49;14.17;;;11.27;;
16524;SDS011;8375;33.594;-117.718;2022-08-18T10:33:59;12.05;;;10.75;;
16524;SDS011;8375;33.594;-117.718;2022-08-18T10:36:37;13.60;;;10.33;;
16524;SDS011;8375;33.594;-117.718;2022-08-18T10:39:11;14.50;;;11.53;;
16524;SDS011;8375;33.594;-117.718;2022-08-18T10:41:46;20.25;;;11.05;;
16524;SDS011;8375;33.594;-117.718;2022-08-18T10:44:39;15.37;;;10.17;;
16524;SDS011;8375;33.594;-117.718;2022-08-18T10:47:18;18.03;;;11.60;;
16524;SDS011;8375;33.594;-117.718;2022-08-18T10:49:52;15.20;;;11.17;;
16524;SDS011;8375;33.594;-117.718;2022-08-18T10:52:45;18.57;;;11.13;;
16524;SDS011;8375;33.594;-117.718;2022-08-18T10:55:32;15.47;;;12.13;;
16524;SDS011;8375;33.594;-117.718;2022-08-18T11:01:20;12.40;;;10.63;;
16524;SDS011;8375;33.594;-117.718;2022-08-18T11:04:06;14.60;;;11.07;;
16524;SDS011;8375;33.594;-117.718;2022-08-18T11:06:40;15.17;;;12.07;;
16524;SDS011;8375;33.594;-117.718;2022-08-18T11:09:17;17.93;;;12.90;;
16524;SDS011;8375;33.594;-117.718;2022-08-18T11:11:52;16.53;;;11.83;;
16524;SDS011;8375;33.594;-117.718;2022-08-18T11:17:31;23.50;;;13.10;;
16524;SDS011;8375;33.594;-117.718;2022-08-18T11:20:14;13.33;;;10.90;;
16524;SDS011;8375;33.594;-117.718;2022-08-18T11:22:53;15.10;;;11.57;;
16524;SDS011;8375;33.594;-117.718;2022-08-18T11:25:24;17.20;;;10.80;;
16524;SDS011;8375;33.594;-117.718;2022-08-18T11:27:56;17.23;;;12.33;;
16524;SDS011;8375;33.594;-117.718;2022-08-18T11:30:26;17.13;;;12.77;;
16524;SDS011;8375;33.594;-117.718;2022-08-18T11:32:57;17.10;;;13.30;;
16524;SDS011;8375;33.594;-117.718;2022-08-18T11:35:28;18.77;;;13.70;;
16524;SDS011;8375;33.594;-117.718;2022-08-18T11:38:00;19.30;;;13.10;;
16524;SDS011;8375;33.594;-117.718;2022-08-18T11:40:32;16.40;;;13.17;;
16524;SDS011;8375;33.594;-117.718;2022-08-18T11:43:04;18.73;;;13.43;;
16524;SDS011;8375;33.594;-117.718;2022-08-18T11:45:51;16.63;;;12.87;;
16524;SDS011;8375;33.594;-117.718;2022-08-18T11:48:26;18.10;;;12.23;;
16524;SDS011;8375;33.594;-117.718;2022-08-18T11:51:02;16.27;;;13.33;;
16524;SDS011;8375;33.594;-117.718;2022-08-18T11:53:39;22.63;;;14.63;;
16524;SDS011;8375;33.594;-117.718;2022-08-18T11:56:21;19.53;;;12.93;;
16524;SDS011;8375;33.594;-117.718;2022-08-18T11:58:52;18.50;;;12.87;;
16524;SDS011;8375;33.594;-117.718;2022-08-18T12:01:33;19.63;;;13.10;;
16524;SDS011;8375;33.594;-117.718;2022-08-18T12:04:09;16.47;;;12.50;;
16524;SDS011;8375;33.594;-117.718;2022-08-18T12:06:57;14.73;;;12.30;;
16524;SDS011;8375;33.594;-117.718;2022-08-18T12:09:40;16.63;;;12.07;;
16524;SDS011;8375;33.594;-117.718;2022-08-18T12:12:14;15.93;;;12.33;;
16524;SDS011;8375;33.594;-117.718;2022-08-18T12:14:51;17.87;;;12.23;;
16524;SDS011;8375;33.594;-117.718;2022-08-18T12:17:22;20.20;;;13.60;;
16524;SDS011;8375;33.594;-117.718;2022-08-18T12:19:51;15.03;;;13.07;;
16524;SDS011;8375;33.594;-117.718;2022-08-18T12:22:22;18.23;;;13.17;;
16524;SDS011;8375;33.594;-117.718;2022-08-18T12:24:54;16.27;;;12.40;;
16524;SDS011;8375;33.594;-117.718;2022-08-18T12:27:23;16.20;;;12.50;;
16524;SDS011;8375;33.594;-117.718;2022-08-18T12:29:53;16.58;;;12.60;;
16524;SDS011;8375;33.594;-117.718;2022-08-18T12:32:24;16.83;;;12.20;;
16524;SDS011;8375;33.594;-117.718;2022-08-18T12:34:53;13.97;;;11.57;;
16524;SDS011;8375;33.594;-117.718;2022-08-18T12:37:23;16.40;;;12.53;;
16524;SDS011;8375;33.594;-117.718;2022-08-18T12:39:54;16.58;;;12.68;;
16524;SDS011;8375;33.594;-117.718;2022-08-18T12:42:23;17.37;;;13.03;;
16524;SDS011;8375;33.594;-117.718;2022-08-18T12:44:52;18.90;;;12.98;;
16524;SDS011;8375;33.594;-117.718;2022-08-18T12:47:21;13.85;;;11.82;;
16524;SDS011;8375;33.594;-117.718;2022-08-18T12:49:52;17.83;;;12.77;;
16524;SDS011;8375;33.594;-117.718;2022-08-18T12:52:20;18.17;;;13.02;;
16524;SDS011;8375;33.594;-117.718;2022-08-18T12:54:49;14.70;;;12.80;;
16524;SDS011;8375;33.594;-117.718;2022-08-18T12:57:20;17.90;;;12.93;;
16524;SDS011;8375;33.594;-117.718;2022-08-18T12:59:51;17.30;;;11.87;;
16524;SDS011;8375;33.594;-117.718;2022-08-18T13:02:20;15.90;;;12.50;;
16524;SDS011;8375;33.594;-117.718;2022-08-18T13:04:48;16.10;;;13.23;;
16524;SDS011;8375;33.594;-117.718;2022-08-18T13:07:17;16.90;;;11.73;;
16524;SDS011;8375;33.594;-117.718;2022-08-18T13:09:46;14.13;;;12.07;;
16524;SDS011;8375;33.594;-117.718;2022-08-18T13:12:14;16.05;;;12.20;;
16524;SDS011;8375;33.594;-117.718;2022-08-18T13:14:45;13.90;;;12.13;;
16524;SDS011;8375;33.594;-117.718;2022-08-18T13:17:15;16.60;;;12.77;;
16524;SDS011;8375;33.594;-117.718;2022-08-18T13:19:44;16.30;;;12.30;;
16524;SDS011;8375;33.594;-117.718;2022-08-18T13:22:13;18.90;;;13.43;;
16524;SDS011;8375;33.594;-117.718;2022-08-18T13:24:41;14.40;;;12.70;;
16524;SDS011;8375;33.594;-117.718;2022-08-18T13:27:10;18.43;;;13.30;;
16524;SDS011;8375;33.594;-117.718;2022-08-18T13:29:38;14.87;;;13.13;;
16524;SDS011;8375;33.594;-117.718;2022-08-18T13:32:09;17.43;;;13.13;;
16524;SDS011;8375;33.594;-117.718;2022-08-18T13:34:37;15.30;;;12.27;;
16524;SDS011;8375;33.594;-117.718;2022-08-18T13:37:06;14.43;;;12.23;;
16524;SDS011;8375;33.594;-117.718;2022-08-18T13:39:35;17.00;;;12.70;;
16524;SDS011;8375;33.594;-117.718;2022-08-18T13:42:04;14.20;;;11.77;;
16524;SDS011;8375;33.594;-117.718;2022-08-18T13:44:32;16.17;;;11.97;;
16524;SDS011;8375;33.594;-117.718;2022-08-18T13:47:01;16.40;;;12.13;;
16524;SDS011;8375;33.594;-117.718;2022-08-18T13:49:31;18.10;;;12.07;;
16524;SDS011;8375;33.594;-117.718;2022-08-18T13:52:00;13.85;;;10.98;;
16524;SDS011;8375;33.594;-117.718;2022-08-18T13:54:30;15.80;;;11.00;;
16524;SDS011;8375;33.594;-117.718;2022-08-18T13:57:00;15.77;;;12.10;;
16524;SDS011;8375;33.594;-117.718;2022-08-18T13:59:30;18.47;;;11.97;;
16524;SDS011;8375;33.594;-117.718;2022-08-18T14:01:59;13.88;;;11.10;;
16524;SDS011;8375;33.594;-117.718;2022-08-18T14:04:31;14.63;;;11.25;;
16524;SDS011;8375;33.594;-117.718;2022-08-18T14:07:00;13.60;;;10.43;;
16524;SDS011;8375;33.594;-117.718;2022-08-18T14:09:29;16.98;;;10.95;;
16524;SDS011;8375;33.594;-117.718;2022-08-18T14:11:58;14.77;;;10.50;;
16524;SDS011;8375;33.594;-117.718;2022-08-18T14:14:27;17.67;;;11.07;;
16524;SDS011;8375;33.594;-117.718;2022-08-18T14:16:55;15.43;;;10.18;;
16524;SDS011;8375;33.594;-117.718;2022-08-18T14:19:24;13.23;;;10.52;;
16524;SDS011;8375;33.594;-117.718;2022-08-18T14:22:11;14.88;;;10.10;;
16524;SDS011;8375;33.594;-117.718;2022-08-18T14:24:56;14.20;;;10.05;;
16524;SDS011;8375;33.594;-117.718;2022-08-18T14:27:41;18.88;;;10.18;;
16524;SDS011;8375;33.594;-117.718;2022-08-18T14:30:11;15.00;;;10.27;;
16524;SDS011;8375;33.594;-117.718;2022-08-18T14:32:41;13.85;;;9.63;;
16524;SDS011;8375;33.594;-117.718;2022-08-18T14:35:10;14.63;;;10.63;;
16524;SDS011;8375;33.594;-117.718;2022-08-18T14:37:43;15.25;;;10.45;;
16524;SDS011;8375;33.594;-117.718;2022-08-18T14:40:12;15.45;;;9.77;;
16524;SDS011;8375;33.594;-117.718;2022-08-18T14:42:40;13.00;;;8.95;;
16524;SDS011;8375;33.594;-117.718;2022-08-18T14:45:09;14.52;;;9.95;;
16524;SDS011;8375;33.594;-117.718;2022-08-18T14:47:40;13.63;;;9.40;;
16524;SDS011;8375;33.594;-117.718;2022-08-18T14:50:09;14.85;;;9.38;;
16524;SDS011;8375;33.594;-117.718;2022-08-18T14:52:39;11.80;;;9.68;;
16524;SDS011;8375;33.594;-117.718;2022-08-18T14:55:10;11.93;;;9.93;;
16524;SDS011;8375;33.594;-117.718;2022-08-18T14:57:38;13.48;;;10.30;;
16524;SDS011;8375;33.594;-117.718;2022-08-18T15:00:08;13.77;;;9.77;;
16524;SDS011;8375;33.594;-117.718;2022-08-18T15:02:40;11.00;;;8.70;;
16524;SDS011;8375;33.594;-117.718;2022-08-18T15:05:10;10.32;;;8.75;;
16524;SDS011;8375;33.594;-117.718;2022-08-18T15:07:39;12.05;;;9.57;;
16524;SDS011;8375;33.594;-117.718;2022-08-18T15:10:11;15.40;;;9.50;;
16524;SDS011;8375;33.594;-117.718;2022-08-18T15:12:42;18.55;;;9.43;;
16524;SDS011;8375;33.594;-117.718;2022-08-18T15:15:12;12.13;;;8.70;;
16524;SDS011;8375;33.594;-117.718;2022-08-18T15:17:41;12.32;;;8.60;;